sensor_id;sensor_type;location;lat;lon;timestamp;temperature;humidity
46139;DHT22;32398;49.112;8.598;2024-01-11T00:02:25;-1.90;97.10
46139;DHT22;32398;49.112;8.598;2024-01-11T00:04:52;-1.90;97.20
46139;DHT22;32398;49.112;8.598;2024-01-11T00:07:18;-1.90;97.20
46139;DHT22;32398;49.112;8.598;2024-01-11T00:09:45;-1.90;97.20
46139;DHT22;32398;49.112;8.598;2024-01-11T00:12:11;-1.90;97.20
46139;DHT22;32398;49.112;8.598;2024-01-11T00:14:38;-1.90;97.20
46139;DHT22;32398;49.112;8.598;2024-01-11T00:17:05;-2.00;97.20
46139;DHT22;32398;49.112;8.598;2024-01-11T00:19:33;-2.00;97.20
46139;DHT22;32398;49.112;8.598;2024-01-11T00:22:00;-2.00;97.20
46139;DHT22;32398;49.112;8.598;2024-01-11T00:24:27;-2.00;97.20
46139;DHT22;32398;49.112;8.598;2024-01-11T00:26:54;-2.00;97.30
46139;DHT22;32398;49.112;8.598;2024-01-11T00:29:20;-2.00;97.30
46139;DHT22;32398;49.112;8.598;2024-01-11T00:31:47;-2.00;97.30
46139;DHT22;32398;49.112;8.598;2024-01-11T00:34:14;-2.00;97.30
46139;DHT22;32398;49.112;8.598;2024-01-11T00:36:42;-2.10;97.30
46139;DHT22;32398;49.112;8.598;2024-01-11T00:39:09;-2.00;97.30
46139;DHT22;32398;49.112;8.598;2024-01-11T00:41:37;-2.10;97.30
46139;DHT22;32398;49.112;8.598;2024-01-11T00:44:03;-2.10;97.30
46139;DHT22;32398;49.112;8.598;2024-01-11T00:46:30;-2.10;97.30
46139;DHT22;32398;49.112;8.598;2024-01-11T00:48:57;-2.10;97.30
46139;DHT22;32398;49.112;8.598;2024-01-11T00:51:24;-2.20;97.30
46139;DHT22;32398;49.112;8.598;2024-01-11T00:53:52;-2.20;97.40
46139;DHT22;32398;49.112;8.598;2024-01-11T00:56:18;-2.20;97.40
46139;DHT22;32398;49.112;8.598;2024-01-11T00:58:45;-2.20;97.40
46139;DHT22;32398;49.112;8.598;2024-01-11T01:01:12;-2.20;97.40
46139;DHT22;32398;49.112;8.598;2024-01-11T01:03:39;-2.20;97.40
46139;DHT22;32398;49.112;8.598;2024-01-11T01:06:05;-2.20;97.40
46139;DHT22;32398;49.112;8.598;2024-01-11T01:08:32;-2.20;97.50
46139;DHT22;32398;49.112;8.598;2024-01-11T01:11:00;-2.20;97.50
46139;DHT22;32398;49.112;8.598;2024-01-11T01:13:26;-2.30;97.40
46139;DHT22;32398;49.112;8.598;2024-01-11T01:15:53;-2.30;97.50
46139;DHT22;32398;49.112;8.598;2024-01-11T01:18:20;-2.30;97.50
46139;DHT22;32398;49.112;8.598;2024-01-11T01:20:46;-2.30;97.50
46139;DHT22;32398;49.112;8.598;2024-01-11T01:23:13;-2.30;97.50
46139;DHT22;32398;49.112;8.598;2024-01-11T01:25:39;-2.30;97.60
46139;DHT22;32398;49.112;8.598;2024-01-11T01:28:07;-2.40;97.50
46139;DHT22;32398;49.112;8.598;2024-01-11T01:30:34;-2.40;97.50
46139;DHT22;32398;49.112;8.598;2024-01-11T01:33:00;-2.40;97.50
46139;DHT22;32398;49.112;8.598;2024-01-11T01:35:27;-2.40;97.60
46139;DHT22;32398;49.112;8.598;2024-01-11T01:37:54;-2.40;97.60
46139;DHT22;32398;49.112;8.598;2024-01-11T01:40:21;-2.40;97.60
46139;DHT22;32398;49.112;8.598;2024-01-11T01:42:48;-2.40;97.60
46139;DHT22;32398;49.112;8.598;2024-01-11T01:45:16;-2.40;97.90
46139;DHT22;32398;49.112;8.598;2024-01-11T01:47:43;-2.50;97.60
46139;DHT22;32398;49.112;8.598;2024-01-11T01:50:10;-2.40;97.60
46139;DHT22;32398;49.112;8.598;2024-01-11T01:52:37;-2.50;97.60
46139;DHT22;32398;49.112;8.598;2024-01-11T01:55:04;-2.50;97.60
46139;DHT22;32398;49.112;8.598;2024-01-11T01:57:32;-2.50;97.60
46139;DHT22;32398;49.112;8.598;2024-01-11T02:00:01;-2.50;97.60
46139;DHT22;32398;49.112;8.598;2024-01-11T02:02:29;-2.50;97.70
46139;DHT22;32398;49.112;8.598;2024-01-11T02:04:56;-2.50;97.70
46139;DHT22;32398;49.112;8.598;2024-01-11T02:07:23;-2.50;97.70
46139;DHT22;32398;49.112;8.598;2024-01-11T02:09:50;-2.60;97.60
46139;DHT22;32398;49.112;8.598;2024-01-11T02:12:18;-2.60;97.70
46139;DHT22;32398;49.112;8.598;2024-01-11T02:14:45;-2.60;97.70
46139;DHT22;32398;49.112;8.598;2024-01-11T02:17:11;-2.60;97.70
46139;DHT22;32398;49.112;8.598;2024-01-11T02:19:39;-2.60;97.70
46139;DHT22;32398;49.112;8.598;2024-01-11T02:22:08;-2.60;97.50
46139;DHT22;32398;49.112;8.598;2024-01-11T02:24:40;-2.60;97.70
46139;DHT22;32398;49.112;8.598;2024-01-11T02:27:06;-2.70;97.70
46139;DHT22;32398;49.112;8.598;2024-01-11T02:29:35;-2.70;97.80
46139;DHT22;32398;49.112;8.598;2024-01-11T02:32:01;-2.60;97.80
46139;DHT22;32398;49.112;8.598;2024-01-11T02:34:28;-2.70;97.80
46139;DHT22;32398;49.112;8.598;2024-01-11T02:36:55;-2.70;97.80
46139;DHT22;32398;49.112;8.598;2024-01-11T02:39:22;-2.70;97.80
46139;DHT22;32398;49.112;8.598;2024-01-11T02:41:51;-2.70;97.80
46139;DHT22;32398;49.112;8.598;2024-01-11T02:44:17;-2.70;97.80
46139;DHT22;32398;49.112;8.598;2024-01-11T02:46:44;-2.70;97.80
46139;DHT22;32398;49.112;8.598;2024-01-11T02:49:11;-2.80;97.80
46139;DHT22;32398;49.112;8.598;2024-01-11T02:51:37;-2.70;97.90
46139;DHT22;32398;49.112;8.598;2024-01-11T02:54:04;-2.80;97.90
46139;DHT22;32398;49.112;8.598;2024-01-11T02:56:31;-2.80;97.90
46139;DHT22;32398;49.112;8.598;2024-01-11T02:59:00;-2.80;97.90
46139;DHT22;32398;49.112;8.598;2024-01-11T03:01:26;-2.80;97.90
46139;DHT22;32398;49.112;8.598;2024-01-11T03:03:53;-2.80;98.00
46139;DHT22;32398;49.112;8.598;2024-01-11T03:06:20;-2.80;97.90
46139;DHT22;32398;49.112;8.598;2024-01-11T03:08:47;-2.80;97.90
46139;DHT22;32398;49.112;8.598;2024-01-11T03:11:14;-2.80;98.00
46139;DHT22;32398;49.112;8.598;2024-01-11T03:13:41;-2.80;98.00
46139;DHT22;32398;49.112;8.598;2024-01-11T03:16:09;-2.90;97.90
46139;DHT22;32398;49.112;8.598;2024-01-11T03:18:36;-2.90;97.90
46139;DHT22;32398;49.112;8.598;2024-01-11T03:21:03;-2.90;97.90
46139;DHT22;32398;49.112;8.598;2024-01-11T03:23:30;-2.90;98.00
46139;DHT22;32398;49.112;8.598;2024-01-11T03:25:56;-2.90;98.00
46139;DHT22;32398;49.112;8.598;2024-01-11T03:28:23;-2.90;98.00
46139;DHT22;32398;49.112;8.598;2024-01-11T03:30:49;-2.90;98.00
46139;DHT22;32398;49.112;8.598;2024-01-11T03:33:17;-2.90;98.00
46139;DHT22;32398;49.112;8.598;2024-01-11T03:35:45;-2.90;98.00
46139;DHT22;32398;49.112;8.598;2024-01-11T03:38:12;-3.00;98.00
46139;DHT22;32398;49.112;8.598;2024-01-11T03:40:38;-2.90;98.00
46139;DHT22;32398;49.112;8.598;2024-01-11T03:43:05;-3.00;98.00
46139;DHT22;32398;49.112;8.598;2024-01-11T03:45:31;-3.00;98.30
46139;DHT22;32398;49.112;8.598;2024-01-11T03:47:58;-3.00;98.00
46139;DHT22;32398;49.112;8.598;2024-01-11T03:50:26;-3.00;98.00
46139;DHT22;32398;49.112;8.598;2024-01-11T03:52:52;-3.00;98.00
46139;DHT22;32398;49.112;8.598;2024-01-11T03:55:19;-3.00;98.10
46139;DHT22;32398;49.112;8.598;2024-01-11T03:57:46;-3.00;98.00
46139;DHT22;32398;49.112;8.598;2024-01-11T04:00:13;-3.10;98.00
46139;DHT22;32398;49.112;8.598;2024-01-11T04:02:40;-3.10;98.10
46139;DHT22;32398;49.112;8.598;2024-01-11T04:05:06;-3.10;98.10
46139;DHT22;32398;49.112;8.598;2024-01-11T04:07:34;-3.10;98.10
46139;DHT22;32398;49.112;8.598;2024-01-11T04:10:01;-3.10;98.10
46139;DHT22;32398;49.112;8.598;2024-01-11T04:12:28;-3.10;97.80
46139;DHT22;32398;49.112;8.598;2024-01-11T04:14:54;-3.10;98.10
46139;DHT22;32398;49.112;8.598;2024-01-11T04:17:21;-3.10;98.10
46139;DHT22;32398;49.112;8.598;2024-01-11T04:19:47;-3.20;98.10
46139;DHT22;32398;49.112;8.598;2024-01-11T04:22:14;-3.10;98.10
46139;DHT22;32398;49.112;8.598;2024-01-11T04:24:43;-3.20;98.10
46139;DHT22;32398;49.112;8.598;2024-01-11T04:27:10;-3.20;98.10
46139;DHT22;32398;49.112;8.598;2024-01-11T04:29:37;-3.20;98.10
46139;DHT22;32398;49.112;8.598;2024-01-11T04:32:04;-3.20;97.90
46139;DHT22;32398;49.112;8.598;2024-01-11T04:34:30;-3.20;98.20
46139;DHT22;32398;49.112;8.598;2024-01-11T04:36:57;-3.20;98.10
46139;DHT22;32398;49.112;8.598;2024-01-11T04:39:24;-3.20;98.20
46139;DHT22;32398;49.112;8.598;2024-01-11T04:41:52;-3.20;98.20
46139;DHT22;32398;49.112;8.598;2024-01-11T04:44:18;-3.20;98.20
46139;DHT22;32398;49.112;8.598;2024-01-11T04:46:45;-3.20;98.30
46139;DHT22;32398;49.112;8.598;2024-01-11T04:49:11;-3.30;98.20
46139;DHT22;32398;49.112;8.598;2024-01-11T04:51:38;-3.30;98.30
46139;DHT22;32398;49.112;8.598;2024-01-11T04:54:05;-3.30;98.30
46139;DHT22;32398;49.112;8.598;2024-01-11T04:56:31;-3.30;98.30
46139;DHT22;32398;49.112;8.598;2024-01-11T04:58:59;-3.30;98.30
46139;DHT22;32398;49.112;8.598;2024-01-11T05:01:26;-3.30;98.30
46139;DHT22;32398;49.112;8.598;2024-01-11T05:03:53;-3.30;98.30
46139;DHT22;32398;49.112;8.598;2024-01-11T05:06:20;-3.30;98.30
46139;DHT22;32398;49.112;8.598;2024-01-11T05:08:47;-3.30;98.30
46139;DHT22;32398;49.112;8.598;2024-01-11T05:11:17;-3.40;98.30
46139;DHT22;32398;49.112;8.598;2024-01-11T05:13:43;-3.40;98.30
46139;DHT22;32398;49.112;8.598;2024-01-11T05:16:30;-3.40;98.30
46139;DHT22;32398;49.112;8.598;2024-01-11T05:18:57;-3.40;98.30
46139;DHT22;32398;49.112;8.598;2024-01-11T05:21:23;-3.40;98.30
46139;DHT22;32398;49.112;8.598;2024-01-11T05:23:51;-3.40;98.40
46139;DHT22;32398;49.112;8.598;2024-01-11T05:26:18;-3.40;98.40
46139;DHT22;32398;49.112;8.598;2024-01-11T05:28:45;-3.40;98.40
46139;DHT22;32398;49.112;8.598;2024-01-11T05:31:12;-3.40;98.40
46139;DHT22;32398;49.112;8.598;2024-01-11T05:33:40;-3.40;98.40
46139;DHT22;32398;49.112;8.598;2024-01-11T05:36:07;-3.40;98.40
46139;DHT22;32398;49.112;8.598;2024-01-11T05:38:34;-3.40;98.40
46139;DHT22;32398;49.112;8.598;2024-01-11T05:41:01;-3.40;98.40
46139;DHT22;32398;49.112;8.598;2024-01-11T05:43:27;-3.50;98.40
46139;DHT22;32398;49.112;8.598;2024-01-11T05:45:54;-3.50;98.40
46139;DHT22;32398;49.112;8.598;2024-01-11T05:48:20;-3.50;98.40
46139;DHT22;32398;49.112;8.598;2024-01-11T05:50:48;-3.50;98.50
46139;DHT22;32398;49.112;8.598;2024-01-11T05:53:15;-3.50;98.20
46139;DHT22;32398;49.112;8.598;2024-01-11T05:55:42;-3.50;98.80
46139;DHT22;32398;49.112;8.598;2024-01-11T05:58:09;-3.50;98.50
46139;DHT22;32398;49.112;8.598;2024-01-11T06:00:35;-3.50;98.50
46139;DHT22;32398;49.112;8.598;2024-01-11T06:03:02;-3.50;98.50
46139;DHT22;32398;49.112;8.598;2024-01-11T06:05:29;-3.60;98.50
46139;DHT22;32398;49.112;8.598;2024-01-11T06:07:57;-3.50;98.50
46139;DHT22;32398;49.112;8.598;2024-01-11T06:10:24;-3.60;98.50
46139;DHT22;32398;49.112;8.598;2024-01-11T06:12:50;-3.60;98.50
46139;DHT22;32398;49.112;8.598;2024-01-11T06:15:17;-3.60;98.50
46139;DHT22;32398;49.112;8.598;2024-01-11T06:17:44;-3.60;98.50
46139;DHT22;32398;49.112;8.598;2024-01-11T06:20:13;-3.60;98.50
46139;DHT22;32398;49.112;8.598;2024-01-11T06:22:40;-3.60;98.50
46139;DHT22;32398;49.112;8.598;2024-01-11T06:25:08;-3.60;98.50
46139;DHT22;32398;49.112;8.598;2024-01-11T06:27:35;-3.60;98.50
46139;DHT22;32398;49.112;8.598;2024-01-11T06:30:01;-3.60;98.60
46139;DHT22;32398;49.112;8.598;2024-01-11T06:32:28;-3.60;98.60
46139;DHT22;32398;49.112;8.598;2024-01-11T06:34:54;-3.60;98.60
46139;DHT22;32398;49.112;8.598;2024-01-11T06:37:21;-3.60;98.60
46139;DHT22;32398;49.112;8.598;2024-01-11T06:39:48;-3.60;98.60
46139;DHT22;32398;49.112;8.598;2024-01-11T06:42:16;-3.70;98.90
46139;DHT22;32398;49.112;8.598;2024-01-11T06:44:43;-3.70;98.60
46139;DHT22;32398;49.112;8.598;2024-01-11T06:47:09;-3.70;98.60
46139;DHT22;32398;49.112;8.598;2024-01-11T06:49:37;-3.70;98.60
46139;DHT22;32398;49.112;8.598;2024-01-11T06:52:04;-3.70;98.60
46139;DHT22;32398;49.112;8.598;2024-01-11T06:54:31;-3.70;98.70
46139;DHT22;32398;49.112;8.598;2024-01-11T06:56:58;-3.70;98.60
46139;DHT22;32398;49.112;8.598;2024-01-11T06:59:26;-3.70;98.60
46139;DHT22;32398;49.112;8.598;2024-01-11T07:01:53;-3.80;98.60
46139;DHT22;32398;49.112;8.598;2024-01-11T07:04:19;-3.70;98.60
46139;DHT22;32398;49.112;8.598;2024-01-11T07:06:46;-3.70;98.60
46139;DHT22;32398;49.112;8.598;2024-01-11T07:09:15;-3.80;98.60
46139;DHT22;32398;49.112;8.598;2024-01-11T07:11:42;-3.70;98.70
46139;DHT22;32398;49.112;8.598;2024-01-11T07:14:09;-3.80;98.70
46139;DHT22;32398;49.112;8.598;2024-01-11T07:16:38;-3.80;98.70
46139;DHT22;32398;49.112;8.598;2024-01-11T07:19:05;-3.80;98.60
46139;DHT22;32398;49.112;8.598;2024-01-11T07:21:31;-3.80;98.60
46139;DHT22;32398;49.112;8.598;2024-01-11T07:23:58;-3.80;98.90
46139;DHT22;32398;49.112;8.598;2024-01-11T07:26:25;-3.80;98.70
46139;DHT22;32398;49.112;8.598;2024-01-11T07:28:53;-3.80;98.70
46139;DHT22;32398;49.112;8.598;2024-01-11T07:31:20;-3.80;99.00
46139;DHT22;32398;49.112;8.598;2024-01-11T07:33:49;-3.80;98.70
46139;DHT22;32398;49.112;8.598;2024-01-11T07:36:15;-3.90;98.70
46139;DHT22;32398;49.112;8.598;2024-01-11T07:38:42;-3.80;98.80
46139;DHT22;32398;49.112;8.598;2024-01-11T07:41:09;-3.90;98.70
46139;DHT22;32398;49.112;8.598;2024-01-11T07:43:36;-3.80;98.70
46139;DHT22;32398;49.112;8.598;2024-01-11T07:46:03;-3.90;98.70
46139;DHT22;32398;49.112;8.598;2024-01-11T07:48:30;-3.90;98.70
46139;DHT22;32398;49.112;8.598;2024-01-11T07:50:59;-3.90;98.70
46139;DHT22;32398;49.112;8.598;2024-01-11T07:53:25;-3.90;98.70
46139;DHT22;32398;49.112;8.598;2024-01-11T07:55:52;-3.90;98.70
46139;DHT22;32398;49.112;8.598;2024-01-11T07:58:19;-3.90;98.70
46139;DHT22;32398;49.112;8.598;2024-01-11T08:00:46;-3.90;98.70
46139;DHT22;32398;49.112;8.598;2024-01-11T08:03:13;-3.90;98.80
46139;DHT22;32398;49.112;8.598;2024-01-11T08:05:39;-3.90;98.80
46139;DHT22;32398;49.112;8.598;2024-01-11T08:08:08;-3.90;98.80
46139;DHT22;32398;49.112;8.598;2024-01-11T08:10:34;-3.90;98.80
46139;DHT22;32398;49.112;8.598;2024-01-11T08:13:01;-3.90;98.80
46139;DHT22;32398;49.112;8.598;2024-01-11T08:15:27;-3.90;98.80
46139;DHT22;32398;49.112;8.598;2024-01-11T08:17:54;-3.90;98.80
46139;DHT22;32398;49.112;8.598;2024-01-11T08:20:20;-3.90;98.90
46139;DHT22;32398;49.112;8.598;2024-01-11T08:22:47;-4.00;98.80
46139;DHT22;32398;49.112;8.598;2024-01-11T08:25:15;-4.00;98.90
46139;DHT22;32398;49.112;8.598;2024-01-11T08:27:43;-4.00;98.90
46139;DHT22;32398;49.112;8.598;2024-01-11T08:30:09;-4.00;98.90
46139;DHT22;32398;49.112;8.598;2024-01-11T08:32:37;-4.00;98.90
46139;DHT22;32398;49.112;8.598;2024-01-11T08:35:07;-4.00;98.90
46139;DHT22;32398;49.112;8.598;2024-01-11T08:37:35;-4.00;98.90
46139;DHT22;32398;49.112;8.598;2024-01-11T08:40:01;-4.00;99.00
46139;DHT22;32398;49.112;8.598;2024-01-11T08:42:31;-4.00;98.90
46139;DHT22;32398;49.112;8.598;2024-01-11T08:44:57;-4.00;98.90
46139;DHT22;32398;49.112;8.598;2024-01-11T08:47:29;-4.00;99.00
46139;DHT22;32398;49.112;8.598;2024-01-11T08:49:56;-4.00;99.00
46139;DHT22;32398;49.112;8.598;2024-01-11T08:52:22;-4.00;99.00
46139;DHT22;32398;49.112;8.598;2024-01-11T08:54:49;-4.00;99.00
46139;DHT22;32398;49.112;8.598;2024-01-11T08:57:16;-4.00;99.00
46139;DHT22;32398;49.112;8.598;2024-01-11T08:59:44;-4.00;99.00
46139;DHT22;32398;49.112;8.598;2024-01-11T09:02:10;-4.00;99.10
46139;DHT22;32398;49.112;8.598;2024-01-11T09:04:38;-4.00;99.00
46139;DHT22;32398;49.112;8.598;2024-01-11T09:07:05;-4.00;99.10
46139;DHT22;32398;49.112;8.598;2024-01-11T09:09:32;-4.00;99.10
46139;DHT22;32398;49.112;8.598;2024-01-11T09:11:59;-4.00;99.10
46139;DHT22;32398;49.112;8.598;2024-01-11T09:14:26;-4.00;99.10
46139;DHT22;32398;49.112;8.598;2024-01-11T09:16:54;-4.00;99.10
46139;DHT22;32398;49.112;8.598;2024-01-11T09:19:21;-4.10;99.10
46139;DHT22;32398;49.112;8.598;2024-01-11T09:21:48;-4.00;99.10
46139;DHT22;32398;49.112;8.598;2024-01-11T09:24:14;-4.00;99.20
46139;DHT22;32398;49.112;8.598;2024-01-11T09:26:41;-4.00;99.20
46139;DHT22;32398;49.112;8.598;2024-01-11T09:29:08;-4.00;99.20
46139;DHT22;32398;49.112;8.598;2024-01-11T09:31:34;-4.00;99.20
46139;DHT22;32398;49.112;8.598;2024-01-11T09:34:02;-4.00;99.20
46139;DHT22;32398;49.112;8.598;2024-01-11T09:36:29;-4.00;99.20
46139;DHT22;32398;49.112;8.598;2024-01-11T09:38:56;-4.00;99.20
46139;DHT22;32398;49.112;8.598;2024-01-11T09:41:22;-4.00;99.20
46139;DHT22;32398;49.112;8.598;2024-01-11T09:43:49;-4.00;99.20
46139;DHT22;32398;49.112;8.598;2024-01-11T09:46:18;-4.00;99.20
46139;DHT22;32398;49.112;8.598;2024-01-11T09:48:46;-4.00;99.20
46139;DHT22;32398;49.112;8.598;2024-01-11T09:51:15;-4.00;99.30
46139;DHT22;32398;49.112;8.598;2024-01-11T09:53:42;-4.00;99.30
46139;DHT22;32398;49.112;8.598;2024-01-11T09:56:09;-4.00;99.30
46139;DHT22;32398;49.112;8.598;2024-01-11T09:58:36;-4.00;99.30
46139;DHT22;32398;49.112;8.598;2024-01-11T10:01:03;-4.00;99.30
46139;DHT22;32398;49.112;8.598;2024-01-11T10:03:32;-4.00;99.30
46139;DHT22;32398;49.112;8.598;2024-01-11T10:05:59;-4.00;99.40
46139;DHT22;32398;49.112;8.598;2024-01-11T10:08:28;-4.00;99.40
46139;DHT22;32398;49.112;8.598;2024-01-11T10:10:55;-4.00;99.50
46139;DHT22;32398;49.112;8.598;2024-01-11T10:13:25;-4.00;99.40
46139;DHT22;32398;49.112;8.598;2024-01-11T10:15:52;-4.00;99.50
46139;DHT22;32398;49.112;8.598;2024-01-11T10:18:19;-3.90;99.50
46139;DHT22;32398;49.112;8.598;2024-01-11T10:20:48;-4.00;99.40
46139;DHT22;32398;49.112;8.598;2024-01-11T10:23:17;-3.90;99.40
46139;DHT22;32398;49.112;8.598;2024-01-11T10:25:45;-3.90;99.40
46139;DHT22;32398;49.112;8.598;2024-01-11T10:28:13;-3.90;99.40
46139;DHT22;32398;49.112;8.598;2024-01-11T10:30:39;-3.90;99.40
46139;DHT22;32398;49.112;8.598;2024-01-11T10:33:06;-3.90;99.50
46139;DHT22;32398;49.112;8.598;2024-01-11T10:35:33;-3.90;99.40
46139;DHT22;32398;49.112;8.598;2024-01-11T10:38:01;-3.80;99.50
46139;DHT22;32398;49.112;8.598;2024-01-11T10:40:37;-3.90;99.40
46139;DHT22;32398;49.112;8.598;2024-01-11T10:43:05;-3.80;99.50
46139;DHT22;32398;49.112;8.598;2024-01-11T10:45:37;-3.80;99.50
46139;DHT22;32398;49.112;8.598;2024-01-11T10:48:06;-3.80;99.50
46139;DHT22;32398;49.112;8.598;2024-01-11T10:50:34;-3.70;99.50
46139;DHT22;32398;49.112;8.598;2024-01-11T10:53:06;-3.70;99.50
46139;DHT22;32398;49.112;8.598;2024-01-11T10:55:36;-3.70;99.40
46139;DHT22;32398;49.112;8.598;2024-01-11T10:58:03;-3.60;99.40
46139;DHT22;32398;49.112;8.598;2024-01-11T11:00:31;-3.60;99.30
46139;DHT22;32398;49.112;8.598;2024-01-11T11:02:59;-3.60;99.30
46139;DHT22;32398;49.112;8.598;2024-01-11T11:05:26;-3.50;99.20
46139;DHT22;32398;49.112;8.598;2024-01-11T11:07:54;-3.40;99.10
46139;DHT22;32398;49.112;8.598;2024-01-11T11:10:21;-3.40;99.00
46139;DHT22;32398;49.112;8.598;2024-01-11T11:12:48;-3.40;99.00
46139;DHT22;32398;49.112;8.598;2024-01-11T11:15:15;-3.30;98.90
46139;DHT22;32398;49.112;8.598;2024-01-11T11:17:43;-3.20;98.90
46139;DHT22;32398;49.112;8.598;2024-01-11T11:20:11;-3.20;98.80
46139;DHT22;32398;49.112;8.598;2024-01-11T11:22:39;-3.20;98.80
46139;DHT22;32398;49.112;8.598;2024-01-11T11:25:07;-3.20;98.70
46139;DHT22;32398;49.112;8.598;2024-01-11T11:27:34;-3.10;98.70
46139;DHT22;32398;49.112;8.598;2024-01-11T11:30:01;-3.10;98.70
46139;DHT22;32398;49.112;8.598;2024-01-11T11:32:37;-3.10;98.70
46139;DHT22;32398;49.112;8.598;2024-01-11T11:35:06;-3.10;98.70
46139;DHT22;32398;49.112;8.598;2024-01-11T11:37:35;-3.10;98.70
46139;DHT22;32398;49.112;8.598;2024-01-11T11:40:02;-3.10;98.70
46139;DHT22;32398;49.112;8.598;2024-01-11T11:42:30;-3.10;98.70
46139;DHT22;32398;49.112;8.598;2024-01-11T11:44:56;-3.10;98.70
46139;DHT22;32398;49.112;8.598;2024-01-11T11:47:24;-3.10;98.70
46139;DHT22;32398;49.112;8.598;2024-01-11T11:49:57;-3.10;98.80
46139;DHT22;32398;49.112;8.598;2024-01-11T11:52:26;-3.10;98.80
46139;DHT22;32398;49.112;8.598;2024-01-11T11:54:53;-3.00;98.80
46139;DHT22;32398;49.112;8.598;2024-01-11T11:57:21;-3.00;98.80
46139;DHT22;32398;49.112;8.598;2024-01-11T11:59:48;-3.00;99.00
46139;DHT22;32398;49.112;8.598;2024-01-11T12:02:16;-3.00;98.80
46139;DHT22;32398;49.112;8.598;2024-01-11T12:04:46;-3.00;98.80
46139;DHT22;32398;49.112;8.598;2024-01-11T12:07:12;-3.00;98.80
46139;DHT22;32398;49.112;8.598;2024-01-11T12:09:40;-3.00;98.80
46139;DHT22;32398;49.112;8.598;2024-01-11T12:12:07;-2.90;98.90
46139;DHT22;32398;49.112;8.598;2024-01-11T12:14:34;-2.90;98.90
46139;DHT22;32398;49.112;8.598;2024-01-11T12:17:00;-2.90;98.90
46139;DHT22;32398;49.112;8.598;2024-01-11T12:19:27;-2.90;98.90
46139;DHT22;32398;49.112;8.598;2024-01-11T12:21:54;-2.80;98.90
46139;DHT22;32398;49.112;8.598;2024-01-11T12:24:21;-2.80;98.80
46139;DHT22;32398;49.112;8.598;2024-01-11T12:26:49;-2.70;98.80
46139;DHT22;32398;49.112;8.598;2024-01-11T12:29:16;-2.70;98.70
46139;DHT22;32398;49.112;8.598;2024-01-11T12:31:43;-2.60;98.70
46139;DHT22;32398;49.112;8.598;2024-01-11T12:34:10;-2.60;98.60
46139;DHT22;32398;49.112;8.598;2024-01-11T12:36:37;-2.50;98.60
46139;DHT22;32398;49.112;8.598;2024-01-11T12:39:04;-2.50;98.50
46139;DHT22;32398;49.112;8.598;2024-01-11T12:41:31;-2.40;98.40
46139;DHT22;32398;49.112;8.598;2024-01-11T12:44:00;-2.30;98.30
46139;DHT22;32398;49.112;8.598;2024-01-11T12:46:26;-2.30;98.20
46139;DHT22;32398;49.112;8.598;2024-01-11T12:48:53;-2.20;98.10
46139;DHT22;32398;49.112;8.598;2024-01-11T12:51:20;-2.10;98.10
46139;DHT22;32398;49.112;8.598;2024-01-11T12:53:47;-2.10;97.90
46139;DHT22;32398;49.112;8.598;2024-01-11T12:56:14;-2.10;97.80
46139;DHT22;32398;49.112;8.598;2024-01-11T12:58:41;-2.00;97.80
46139;DHT22;32398;49.112;8.598;2024-01-11T13:01:09;-2.00;97.80
46139;DHT22;32398;49.112;8.598;2024-01-11T13:03:37;-2.00;97.70
46139;DHT22;32398;49.112;8.598;2024-01-11T13:06:05;-1.90;97.80
46139;DHT22;32398;49.112;8.598;2024-01-11T13:08:32;-1.90;97.80
46139;DHT22;32398;49.112;8.598;2024-01-11T13:11:01;-1.90;97.80
46139;DHT22;32398;49.112;8.598;2024-01-11T13:13:32;-1.90;97.80
46139;DHT22;32398;49.112;8.598;2024-01-11T13:15:58;-1.80;97.80
46139;DHT22;32398;49.112;8.598;2024-01-11T13:18:26;-1.80;97.80
46139;DHT22;32398;49.112;8.598;2024-01-11T13:20:56;-1.80;97.70
46139;DHT22;32398;49.112;8.598;2024-01-11T13:23:22;-1.70;97.70
46139;DHT22;32398;49.112;8.598;2024-01-11T13:25:50;-1.80;97.70
46139;DHT22;32398;49.112;8.598;2024-01-11T13:28:17;-1.70;97.70
46139;DHT22;32398;49.112;8.598;2024-01-11T13:30:44;-1.70;97.70
46139;DHT22;32398;49.112;8.598;2024-01-11T13:33:11;-1.70;97.70
46139;DHT22;32398;49.112;8.598;2024-01-11T13:35:43;-1.70;97.70
46139;DHT22;32398;49.112;8.598;2024-01-11T13:38:10;-1.70;97.70
46139;DHT22;32398;49.112;8.598;2024-01-11T13:40:36;-1.70;97.80
46139;DHT22;32398;49.112;8.598;2024-01-11T13:43:05;-1.60;97.80
46139;DHT22;32398;49.112;8.598;2024-01-11T13:45:31;-1.60;97.80
46139;DHT22;32398;49.112;8.598;2024-01-11T13:47:59;-1.50;97.90
46139;DHT22;32398;49.112;8.598;2024-01-11T13:50:25;-1.60;97.80
46139;DHT22;32398;49.112;8.598;2024-01-11T13:52:54;-1.50;97.90
46139;DHT22;32398;49.112;8.598;2024-01-11T13:55:20;-1.50;97.80
46139;DHT22;32398;49.112;8.598;2024-01-11T13:57:47;-1.40;97.70
46139;DHT22;32398;49.112;8.598;2024-01-11T14:00:15;-1.30;97.60
46139;DHT22;32398;49.112;8.598;2024-01-11T14:02:43;-1.30;97.60
46139;DHT22;32398;49.112;8.598;2024-01-11T14:05:12;-1.20;97.50
46139;DHT22;32398;49.112;8.598;2024-01-11T14:07:40;-1.20;97.40
46139;DHT22;32398;49.112;8.598;2024-01-11T14:10:10;-1.10;97.40
46139;DHT22;32398;49.112;8.598;2024-01-11T14:12:38;-1.00;97.30
46139;DHT22;32398;49.112;8.598;2024-01-11T14:15:05;-1.00;97.20
46139;DHT22;32398;49.112;8.598;2024-01-11T14:17:32;-1.00;97.20
46139;DHT22;32398;49.112;8.598;2024-01-11T14:19:59;-0.90;97.10
46139;DHT22;32398;49.112;8.598;2024-01-11T14:22:26;-0.90;97.00
46139;DHT22;32398;49.112;8.598;2024-01-11T14:24:52;-0.80;97.00
46139;DHT22;32398;49.112;8.598;2024-01-11T14:27:21;-0.80;96.90
46139;DHT22;32398;49.112;8.598;2024-01-11T14:29:47;-0.80;96.80
46139;DHT22;32398;49.112;8.598;2024-01-11T14:32:14;-0.70;96.90
46139;DHT22;32398;49.112;8.598;2024-01-11T14:34:41;-0.80;96.70
46139;DHT22;32398;49.112;8.598;2024-01-11T14:37:09;-0.70;96.70
46139;DHT22;32398;49.112;8.598;2024-01-11T14:39:36;-0.80;96.70
46139;DHT22;32398;49.112;8.598;2024-01-11T14:42:03;-0.80;96.70
46139;DHT22;32398;49.112;8.598;2024-01-11T14:44:31;-0.80;96.70
46139;DHT22;32398;49.112;8.598;2024-01-11T14:46:57;-0.80;96.70
46139;DHT22;32398;49.112;8.598;2024-01-11T14:49:24;-0.80;96.70
46139;DHT22;32398;49.112;8.598;2024-01-11T14:51:51;-0.90;96.80
46139;DHT22;32398;49.112;8.598;2024-01-11T14:54:17;-0.90;96.90
46139;DHT22;32398;49.112;8.598;2024-01-11T14:56:46;-0.90;96.90
46139;DHT22;32398;49.112;8.598;2024-01-11T14:59:12;-1.00;97.00
46139;DHT22;32398;49.112;8.598;2024-01-11T15:01:40;-1.00;97.00
46139;DHT22;32398;49.112;8.598;2024-01-11T15:04:07;-1.00;97.10
46139;DHT22;32398;49.112;8.598;2024-01-11T15:06:34;-1.00;97.20
46139;DHT22;32398;49.112;8.598;2024-01-11T15:09:00;-1.00;97.20
46139;DHT22;32398;49.112;8.598;2024-01-11T15:11:27;-1.10;97.20
46139;DHT22;32398;49.112;8.598;2024-01-11T15:13:57;-1.00;97.30
46139;DHT22;32398;49.112;8.598;2024-01-11T15:16:24;-1.00;97.70
46139;DHT22;32398;49.112;8.598;2024-01-11T15:18:53;-1.10;97.70
46139;DHT22;32398;49.112;8.598;2024-01-11T15:21:19;-1.10;97.40
46139;DHT22;32398;49.112;8.598;2024-01-11T15:23:46;-1.10;97.50
46139;DHT22;32398;49.112;8.598;2024-01-11T15:26:13;-1.10;97.40
46139;DHT22;32398;49.112;8.598;2024-01-11T15:28:40;-1.10;97.50
46139;DHT22;32398;49.112;8.598;2024-01-11T15:31:07;-1.10;97.50